Time;durP1;ratioP1;P1;durP2;ratioP2;P2;SDS_P1;SDS_P2;PMS_P1;PMS_P2;Temp;Humidity;BMP_temperature;BMP_pressure;BME280_temperature;BME280_humidity;BME280_pressure;Samples;Min_cycle;Max_cycle;Signal;HPM_P1;HPM_P2
2021/05/25 00:01:40;;;;;;;;;;;16.90;99.90;;;;;;5094931;28;19910;-68
2021/05/25 00:04:06;;;;;;;;;;;17.00;99.90;;;;;;5095025;28;19987;-68
2021/05/25 00:06:33;;;;;;;;;;;17.10;99.90;;;;;;5095005;28;19955;-69
2021/05/25 00:09:00;;;;;;;;;;;17.10;99.90;;;;;;5094906;28;19908;-68
2021/05/25 00:11:26;;;;;;;;;;;17.20;99.90;;;;;;5094866;28;19915;-71
2021/05/25 00:13:53;;;;;;;;;;;17.30;99.90;;;;;;5094676;28;19920;-71
2021/05/25 00:16:20;;;;;;;;;;;17.20;99.90;;;;;;5094498;28;19934;-68
2021/05/25 00:18:47;;;;;;;;;;;17.20;99.90;;;;;;5095010;28;19912;-69
2021/05/25 00:21:14;;;;;;;;;;;17.20;99.90;;;;;;5094691;28;19909;-69
2021/05/25 00:23:40;;;;;;;;;;;17.40;99.90;;;;;;5094475;28;19951;-71
2021/05/25 00:26:07;;;;;;;;;;;17.60;99.90;;;;;;5094710;28;20317;-67
2021/05/25 00:28:34;;;;;;;;;;;17.70;99.90;;;;;;5094748;28;19930;-67
2021/05/25 00:31:01;;;;;;;;;;;17.80;99.90;;;;;;5094734;28;20247;-68
2021/05/25 00:33:27;;;;;;;;;;;17.80;99.90;;;;;;5094164;28;19912;-68
2021/05/25 00:35:55;;;;;;;;;;;17.80;99.90;;;;;;5094451;28;19937;-68
2021/05/25 00:38:22;;;;;;;;;;;17.90;99.90;;;;;;5094317;28;19908;-68
2021/05/25 00:40:49;;;;;;;;;;;18.00;99.90;;;;;;5094058;28;20404;-68
2021/05/25 00:43:15;;;;;;;;;;;18.10;99.90;;;;;;5093935;28;19935;-69
2021/05/25 00:45:42;;;;;;;;;;;18.20;99.90;;;;;;5093059;28;19953;-70
2021/05/25 00:48:09;;;;;;;;;;;18.20;99.90;;;;;;5094377;28;19908;-70
2021/05/25 00:50:37;;;;;;;;;;;18.30;99.90;;;;;;5094241;28;19916;-70
2021/05/25 00:53:05;;;;;;;;;;;18.40;99.90;;;;;;5093898;28;19919;-70
2021/05/25 00:55:36;;;;;;;;;;;18.50;99.90;;;;;;5094223;28;19912;-69
2021/05/25 00:58:03;;;;;;;;;;;18.60;99.90;;;;;;5094005;28;19977;-68
2021/05/25 01:00:34;;;;;;;;;;;18.90;99.90;;;;;;5094296;28;19919;-69
2021/05/25 01:03:01;;;;;;;;;;;19.20;99.90;;;;;;5094036;28;20003;-70
2021/05/25 01:05:28;;;;;;;;;;;19.50;99.90;;;;;;5094156;28;19915;-70
2021/05/25 01:07:55;;;;;;;;;;;19.70;99.90;;;;;;5092845;28;19912;-68
2021/05/25 01:10:34;;;;;;;;;;;20.00;99.90;;;;;;5094170;28;19908;-70
2021/05/25 01:13:06;;;;;;;;;;;20.50;99.90;;;;;;5093992;28;19909;-69
2021/05/25 01:15:34;;;;;;;;;;;20.60;99.90;;;;;;5093965;28;20343;-71
2021/05/25 01:18:01;;;;;;;;;;;20.60;99.90;;;;;;5093734;28;19919;-71
2021/05/25 01:20:31;;;;;;;;;;;20.50;99.90;;;;;;5093757;28;20090;-72
2021/05/25 01:22:58;;;;;;;;;;;20.10;99.90;;;;;;5093256;28;20358;-70
2021/05/25 01:25:26;;;;;;;;;;;19.70;99.90;;;;;;5093566;28;19908;-68
2021/05/25 01:27:54;;;;;;;;;;;19.40;99.90;;;;;;5092464;28;19920;-71
2021/05/25 01:30:22;;;;;;;;;;;19.40;99.90;;;;;;5093545;28;20351;-70
2021/05/25 01:32:48;;;;;;;;;;;19.40;99.90;;;;;;5093212;28;19908;-68
2021/05/25 01:35:15;;;;;;;;;;;19.30;99.90;;;;;;5093407;28;19912;-68
2021/05/25 01:37:42;;;;;;;;;;;19.40;99.90;;;;;;5093322;28;20282;-67
2021/05/25 01:40:09;;;;;;;;;;;19.40;99.90;;;;;;5093234;28;20279;-68
2021/05/25 01:42:37;;;;;;;;;;;19.40;99.90;;;;;;5093013;28;19969;-68
2021/05/25 01:45:05;;;;;;;;;;;19.40;99.90;;;;;;5093026;28;19923;-68
2021/05/25 01:47:32;;;;;;;;;;;19.30;99.90;;;;;;5092656;28;19915;-67
2021/05/25 01:50:11;;;;;;;;;;;19.40;99.90;;;;;;5097173;28;19908;-68
2021/05/25 01:52:51;;;;;;;;;;;19.40;99.90;;;;;;5097383;28;19914;-70
2021/05/25 01:55:27;;;;;;;;;;;19.50;99.90;;;;;;5097360;28;20362;-68
2021/05/25 01:57:57;;;;;;;;;;;19.50;99.90;;;;;;5096562;28;19920;-69
2021/05/25 02:00:24;;;;;;;;;;;19.40;99.90;;;;;;5096923;28;19914;-69
2021/05/25 02:02:51;;;;;;;;;;;19.40;99.90;;;;;;5096574;28;19908;-69
2021/05/25 02:05:18;;;;;;;;;;;19.60;99.90;;;;;;5096845;28;20003;-69
2021/05/25 02:07:51;;;;;;;;;;;19.60;99.90;;;;;;5096619;28;19909;-69
2021/05/25 02:10:25;;;;;;;;;;;19.60;99.90;;;;;;5095477;28;20389;-68
2021/05/25 02:12:53;;;;;;;;;;;19.50;99.90;;;;;;5095459;28;19908;-67
2021/05/25 02:15:19;;;;;;;;;;;19.50;99.90;;;;;;5096227;28;19912;-68
2021/05/25 02:17:46;;;;;;;;;;;19.60;99.90;;;;;;5094524;28;19919;-68
2021/05/25 02:20:13;;;;;;;;;;;19.50;99.90;;;;;;5090805;28;19912;-68
2021/05/25 02:22:40;;;;;;;;;;;19.50;99.90;;;;;;5090747;28;19973;-68
2021/05/25 02:25:07;;;;;;;;;;;19.40;99.90;;;;;;5090642;28;20335;-68
2021/05/25 02:27:33;;;;;;;;;;;19.30;99.90;;;;;;5090777;28;19912;-67
2021/05/25 02:30:00;;;;;;;;;;;19.40;99.90;;;;;;5090936;28;19908;-67
2021/05/25 02:32:27;;;;;;;;;;;19.50;99.90;;;;;;5091383;28;19908;-69
2021/05/25 02:34:54;;;;;;;;;;;19.40;99.90;;;;;;5092286;28;19916;-68
2021/05/25 02:37:21;;;;;;;;;;;19.40;99.90;;;;;;5092583;28;19908;-68
2021/05/25 02:39:48;;;;;;;;;;;19.40;99.90;;;;;;5094673;28;19908;-71
2021/05/25 02:42:14;;;;;;;;;;;19.50;99.90;;;;;;5096469;28;19951;-68
2021/05/25 02:44:41;;;;;;;;;;;19.50;99.90;;;;;;5096394;28;19926;-67
2021/05/25 02:47:08;;;;;;;;;;;19.50;99.90;;;;;;5097725;28;20335;-68
2021/05/25 02:49:34;;;;;;;;;;;19.40;99.90;;;;;;5105378;28;20009;-68
2021/05/25 02:52:01;;;;;;;;;;;19.50;99.90;;;;;;5098829;28;19908;-67
2021/05/25 02:54:28;;;;;;;;;;;19.50;99.90;;;;;;5098478;28;19923;-69
2021/05/25 02:56:54;;;;;;;;;;;19.50;99.90;;;;;;5097618;28;19908;-68
2021/05/25 02:59:21;;;;;;;;;;;19.40;99.90;;;;;;5098420;28;19991;-68
2021/05/25 03:01:48;;;;;;;;;;;19.50;99.90;;;;;;5098450;28;19915;-69
2021/05/25 03:04:15;;;;;;;;;;;19.50;99.90;;;;;;5098903;28;19961;-67
2021/05/25 03:06:42;;;;;;;;;;;19.50;99.90;;;;;;5098136;28;19908;-69
2021/05/25 03:09:08;;;;;;;;;;;19.60;99.90;;;;;;5101033;28;19915;-69
2021/05/25 03:11:35;;;;;;;;;;;19.50;99.90;;;;;;5101930;28;20319;-69
2021/05/25 03:14:02;;;;;;;;;;;19.50;99.90;;;;;;5097486;28;19923;-68
2021/05/25 03:16:29;;;;;;;;;;;19.50;99.90;;;;;;5098117;28;20053;-67
2021/05/25 03:18:55;;;;;;;;;;;19.60;99.90;;;;;;5096797;28;19935;-68
2021/05/25 03:21:22;;;;;;;;;;;19.50;99.90;;;;;;5097378;28;19908;-67
2021/05/25 03:23:49;;;;;;;;;;;19.50;99.90;;;;;;5097291;28;19908;-68
2021/05/25 03:26:16;;;;;;;;;;;19.50;99.90;;;;;;5096907;28;20347;-69
2021/05/25 03:28:43;;;;;;;;;;;19.40;99.90;;;;;;5096952;28;19919;-68
2021/05/25 03:31:09;;;;;;;;;;;19.50;99.90;;;;;;5096238;28;19908;-68
2021/05/25 03:33:36;;;;;;;;;;;19.50;99.90;;;;;;5097130;28;19919;-68
2021/05/25 03:36:03;;;;;;;;;;;19.60;99.90;;;;;;5096798;28;20002;-66
2021/05/25 03:38:29;;;;;;;;;;;19.60;99.90;;;;;;5096904;28;19909;-69
2021/05/25 03:40:56;;;;;;;;;;;19.60;99.90;;;;;;5096558;28;19961;-68
2021/05/25 03:43:23;;;;;;;;;;;19.60;99.90;;;;;;5096247;28;19928;-67
2021/05/25 03:45:50;;;;;;;;;;;19.40;99.90;;;;;;5096222;28;19956;-67
2021/05/25 03:48:17;;;;;;;;;;;19.40;99.90;;;;;;5095642;28;19908;-69
2021/05/25 03:50:45;;;;;;;;;;;19.50;99.90;;;;;;5087085;28;19912;-69
2021/05/25 03:53:11;;;;;;;;;;;19.40;99.90;;;;;;5077911;28;19912;-68
2021/05/25 03:55:46;;;;;;;;;;;19.40;99.90;;;;;;5074498;28;19973;-67
2021/05/25 04:00:58;;;;;;;;;;;19.40;99.90;;;;;;5075044;28;20311;-68
2021/05/25 04:03:25;;;;;;;;;;;19.30;99.90;;;;;;5074808;28;19908;-67
2021/05/25 04:05:52;;;;;;;;;;;19.30;99.90;;;;;;5074671;28;19916;-69
2021/05/25 04:08:18;;;;;;;;;;;19.40;99.90;;;;;;5074722;28;20332;-71
2021/05/25 04:10:46;;;;;;;;;;;19.50;99.90;;;;;;5074362;28;19925;-71
2021/05/25 04:13:13;;;;;;;;;;;19.40;99.90;;;;;;5074581;28;19931;-69
2021/05/25 04:15:43;;;;;;;;;;;19.40;99.90;;;;;;5074788;28;19909;-70
2021/05/25 04:18:10;;;;;;;;;;;19.30;99.90;;;;;;5074520;28;20353;-68
2021/05/25 04:20:37;;;;;;;;;;;19.30;99.90;;;;;;5074628;28;19915;-70
2021/05/25 04:23:03;;;;;;;;;;;19.30;99.90;;;;;;5074323;28;20099;-69
2021/05/25 04:25:30;;;;;;;;;;;19.30;99.90;;;;;;5074258;28;19915;-69
2021/05/25 04:27:57;;;;;;;;;;;19.20;99.90;;;;;;5074334;28;20003;-68
2021/05/25 04:30:24;;;;;;;;;;;19.10;99.90;;;;;;5072960;28;20357;-70
2021/05/25 04:32:51;;;;;;;;;;;19.10;99.90;;;;;;5073927;28;19909;-67
2021/05/25 04:35:18;;;;;;;;;;;19.00;99.90;;;;;;5074194;28;19966;-67
2021/05/25 04:37:44;;;;;;;;;;;19.10;99.90;;;;;;5072806;28;19908;-69
2021/05/25 04:40:11;;;;;;;;;;;19.10;99.90;;;;;;5074210;28;19919;-69
2021/05/25 04:42:38;;;;;;;;;;;19.10;99.90;;;;;;5073739;28;19915;-69
2021/05/25 04:45:06;;;;;;;;;;;19.10;99.90;;;;;;5073712;28;19935;-69
2021/05/25 04:47:33;;;;;;;;;;;19.10;99.90;;;;;;5073987;28;20011;-69
2021/05/25 04:49:59;;;;;;;;;;;19.10;99.90;;;;;;5073859;28;19909;-69
2021/05/25 04:52:26;;;;;;;;;;;19.10;99.90;;;;;;5073882;28;19934;-69
2021/05/25 04:54:55;;;;;;;;;;;19.10;99.90;;;;;;5073647;28;19924;-70
2021/05/25 04:57:23;;;;;;;;;;;19.20;99.90;;;;;;5073627;28;19915;-72
2021/05/25 04:59:49;;;;;;;;;;;19.10;99.90;;;;;;5073708;28;20266;-70
2021/05/25 05:02:16;;;;;;;;;;;19.10;99.90;;;;;;5073148;28;20271;-71
2021/05/25 05:04:43;;;;;;;;;;;19.00;99.90;;;;;;5072755;28;19913;-69
2021/05/25 05:07:11;;;;;;;;;;;19.00;99.90;;;;;;5073667;28;19909;-66
2021/05/25 05:09:37;;;;;;;;;;;19.00;99.90;;;;;;5073552;28;19909;-69
2021/05/25 05:12:04;;;;;;;;;;;19.00;99.90;;;;;;5073261;28;19908;-68
2021/05/25 05:14:31;;;;;;;;;;;19.00;99.90;;;;;;5073401;28;19924;-68
2021/05/25 05:16:57;;;;;;;;;;;18.90;99.90;;;;;;5073145;28;19908;-68
2021/05/25 05:19:24;;;;;;;;;;;18.80;99.90;;;;;;5073286;28;20264;-68
2021/05/25 05:21:51;;;;;;;;;;;18.80;99.90;;;;;;5073672;28;19944;-68
2021/05/25 05:24:18;;;;;;;;;;;18.80;99.90;;;;;;5073027;28;19999;-69
2021/05/25 05:26:45;;;;;;;;;;;18.80;99.90;;;;;;5072901;28;19915;-69
2021/05/25 05:29:11;;;;;;;;;;;18.80;99.90;;;;;;5073295;28;19977;-70
2021/05/25 05:31:38;;;;;;;;;;;18.80;99.90;;;;;;5073123;28;19908;-69
2021/05/25 05:34:05;;;;;;;;;;;18.70;99.90;;;;;;5073148;28;19912;-69
2021/05/25 05:36:31;;;;;;;;;;;18.80;99.90;;;;;;5072938;28;19909;-69
2021/05/25 05:38:58;;;;;;;;;;;18.70;99.90;;;;;;5072867;28;19908;-68
2021/05/25 05:41:25;;;;;;;;;;;18.70;99.90;;;;;;5072864;28;20292;-68
2021/05/25 05:43:51;;;;;;;;;;;18.70;99.90;;;;;;5072875;28;19928;-69
2021/05/25 05:46:18;;;;;;;;;;;18.60;99.90;;;;;;5073120;28;20270;-68
2021/05/25 05:48:45;;;;;;;;;;;18.60;99.90;;;;;;5072882;28;20003;-69
2021/05/25 05:51:12;;;;;;;;;;;18.60;99.90;;;;;;5073011;28;19909;-69
2021/05/25 05:53:38;;;;;;;;;;;18.50;99.90;;;;;;5072930;28;20369;-69
2021/05/25 05:56:05;;;;;;;;;;;18.50;99.90;;;;;;5072647;28;19908;-71
2021/05/25 05:58:32;;;;;;;;;;;18.50;99.90;;;;;;5073004;28;20335;-69
2021/05/25 06:00:59;;;;;;;;;;;18.40;99.90;;;;;;5072684;28;20424;-68
2021/05/25 06:03:26;;;;;;;;;;;18.40;99.90;;;;;;5072886;28;19935;-68
2021/05/25 06:05:52;;;;;;;;;;;18.30;99.90;;;;;;5072740;28;19909;-69
2021/05/25 06:08:21;;;;;;;;;;;18.40;99.90;;;;;;5072823;28;19908;-69
2021/05/25 06:10:54;;;;;;;;;;;18.30;99.90;;;;;;5072371;28;20000;-69
2021/05/25 06:13:24;;;;;;;;;;;18.30;99.90;;;;;;5072763;28;19959;-68
2021/05/25 06:15:54;;;;;;;;;;;18.30;99.90;;;;;;5076500;28;19913;-69
2021/05/25 06:18:21;;;;;;;;;;;18.30;99.90;;;;;;5077323;28;19909;-69
2021/05/25 06:20:47;;;;;;;;;;;18.30;99.90;;;;;;5077127;28;19916;-69
2021/05/25 06:23:14;;;;;;;;;;;18.20;99.90;;;;;;5076943;28;19919;-69
2021/05/25 06:25:41;;;;;;;;;;;18.20;99.90;;;;;;5077445;28;19908;-69
2021/05/25 06:28:08;;;;;;;;;;;18.10;99.90;;;;;;5078228;28;19936;-69
2021/05/25 06:30:36;;;;;;;;;;;18.10;99.90;;;;;;5078522;28;19944;-68
2021/05/25 06:33:03;;;;;;;;;;;18.00;99.90;;;;;;5076625;28;19947;-69
2021/05/25 06:35:31;;;;;;;;;;;17.90;99.90;;;;;;5076528;28;19966;-69
2021/05/25 06:37:58;;;;;;;;;;;17.90;99.90;;;;;;5076604;28;19919;-71
2021/05/25 06:40:25;;;;;;;;;;;17.90;99.90;;;;;;5075908;28;19978;-70
2021/05/25 06:42:51;;;;;;;;;;;17.90;99.90;;;;;;5076206;28;20350;-71
2021/05/25 06:45:18;;;;;;;;;;;17.80;99.90;;;;;;5076455;28;19919;-70
2021/05/25 06:47:46;;;;;;;;;;;17.80;99.90;;;;;;5076108;28;19976;-70
2021/05/25 06:50:14;;;;;;;;;;;17.70;99.90;;;;;;5075995;28;20354;-70
2021/05/25 06:52:41;;;;;;;;;;;17.70;99.90;;;;;;5075981;28;19934;-69
2021/05/25 06:55:09;;;;;;;;;;;17.70;99.90;;;;;;5075217;28;19942;-70
2021/05/25 06:57:35;;;;;;;;;;;17.60;99.90;;;;;;5075900;28;19953;-69
2021/05/25 07:00:06;;;;;;;;;;;17.70;99.90;;;;;;5074635;28;20010;-68
2021/05/25 07:02:32;;;;;;;;;;;17.60;99.90;;;;;;5075900;28;19961;-71
2021/05/25 07:04:59;;;;;;;;;;;17.60;99.90;;;;;;5075680;28;19908;-71
2021/05/25 07:07:26;;;;;;;;;;;17.50;99.90;;;;;;5075898;28;19908;-70
2021/05/25 07:09:52;;;;;;;;;;;17.50;99.90;;;;;;5075102;28;20109;-70
2021/05/25 07:12:19;;;;;;;;;;;17.50;99.90;;;;;;5075847;28;19931;-70
2021/05/25 07:14:46;;;;;;;;;;;17.50;99.90;;;;;;5075431;28;19924;-71
2021/05/25 07:17:13;;;;;;;;;;;17.50;99.90;;;;;;5075636;28;19936;-69
2021/05/25 07:19:39;;;;;;;;;;;17.40;99.90;;;;;;5075506;28;19948;-69
2021/05/25 07:22:06;;;;;;;;;;;17.40;99.90;;;;;;5075727;28;19909;-71
2021/05/25 07:24:33;;;;;;;;;;;17.40;99.90;;;;;;5074630;28;20355;-71
2021/05/25 07:27:00;;;;;;;;;;;17.40;99.90;;;;;;5074251;28;19908;-68
2021/05/25 07:29:27;;;;;;;;;;;17.40;99.90;;;;;;5075341;28;20286;-68
2021/05/25 07:31:53;;;;;;;;;;;17.30;99.90;;;;;;5075507;28;19912;-69
2021/05/25 07:34:20;;;;;;;;;;;17.30;99.90;;;;;;5075383;28;19916;-72
2021/05/25 07:36:47;;;;;;;;;;;17.30;99.90;;;;;;5074946;28;20359;-69
2021/05/25 07:39:15;;;;;;;;;;;17.20;99.90;;;;;;5074626;28;20007;-69
2021/05/25 07:41:41;;;;;;;;;;;17.20;99.90;;;;;;5072166;28;19915;-71
2021/05/25 07:44:08;;;;;;;;;;;17.20;99.90;;;;;;5072882;28;19928;-70
2021/05/25 07:46:35;;;;;;;;;;;17.20;99.90;;;;;;5072973;28;20468;-68
2021/05/25 07:49:01;;;;;;;;;;;17.20;99.90;;;;;;5072882;28;19995;-70
2021/05/25 07:51:28;;;;;;;;;;;17.20;99.90;;;;;;5073014;28;19908;-69
2021/05/25 07:53:55;;;;;;;;;;;17.20;99.90;;;;;;5071970;28;19923;-70
2021/05/25 07:56:21;;;;;;;;;;;17.20;99.90;;;;;;5072624;28;19923;-68
2021/05/25 07:58:48;;;;;;;;;;;17.20;99.90;;;;;;5072567;28;19912;-69
2021/05/25 08:01:15;;;;;;;;;;;17.10;99.90;;;;;;5072790;28;19908;-69
2021/05/25 08:03:41;;;;;;;;;;;17.10;99.90;;;;;;5072713;28;19916;-70
2021/05/25 08:06:08;;;;;;;;;;;17.10;99.90;;;;;;5072534;28;19953;-69
2021/05/25 08:08:35;;;;;;;;;;;17.10;99.90;;;;;;5072289;28;19909;-71
2021/05/25 08:11:02;;;;;;;;;;;17.10;99.90;;;;;;5072346;28;20383;-71
2021/05/25 08:13:28;;;;;;;;;;;17.10;99.90;;;;;;5072556;28;20356;-71
2021/05/25 08:15:56;;;;;;;;;;;17.10;99.90;;;;;;5072606;28;19916;-73
2021/05/25 08:18:49;;;;;;;;;;;17.10;99.90;;;;;;5072356;28;20620;-71
2021/05/25 08:21:16;;;;;;;;;;;17.10;99.90;;;;;;5072428;28;19995;-72
2021/05/25 08:23:42;;;;;;;;;;;17.00;99.90;;;;;;5071737;28;19965;-73
2021/05/25 08:26:12;;;;;;;;;;;17.00;99.90;;;;;;5072260;28;20350;-71
2021/05/25 08:28:41;;;;;;;;;;;17.00;99.90;;;;;;5072247;28;19916;-71
2021/05/25 08:31:08;;;;;;;;;;;17.00;99.90;;;;;;5072192;28;20379;-70
2021/05/25 08:33:35;;;;;;;;;;;16.90;99.90;;;;;;5071698;28;19946;-70
2021/05/25 08:36:01;;;;;;;;;;;16.90;99.90;;;;;;5072131;28;19915;-70
2021/05/25 08:38:28;;;;;;;;;;;16.90;99.90;;;;;;5071211;28;19919;-68
2021/05/25 08:40:55;;;;;;;;;;;16.90;99.90;;;;;;5071666;28;20015;-71
2021/05/25 08:43:23;;;;;;;;;;;16.90;99.90;;;;;;5072020;28;20397;-71
2021/05/25 08:45:50;;;;;;;;;;;16.90;99.90;;;;;;5071652;28;20342;-72
2021/05/25 08:48:18;;;;;;;;;;;16.90;99.90;;;;;;5072034;28;19908;-70
2021/05/25 08:50:44;;;;;;;;;;;16.90;99.90;;;;;;5071580;28;20445;-71
2021/05/25 08:53:11;;;;;;;;;;;16.90;99.90;;;;;;5071150;28;20325;-72
2021/05/25 08:55:39;;;;;;;;;;;16.90;99.90;;;;;;5071600;28;19912;-72
2021/05/25 08:58:06;;;;;;;;;;;16.90;99.90;;;;;;5071491;28;19908;-71
2021/05/25 09:00:33;;;;;;;;;;;16.90;99.90;;;;;;5071653;28;19924;-72
2021/05/25 09:03:00;;;;;;;;;;;16.90;99.90;;;;;;5071615;28;19908;-71
2021/05/25 09:05:27;;;;;;;;;;;16.90;99.90;;;;;;5072264;28;19909;-71
2021/05/25 09:07:55;;;;;;;;;;;16.80;99.90;;;;;;5073127;28;19924;-71
2021/05/25 09:10:23;;;;;;;;;;;16.80;99.90;;;;;;5073306;28;19908;-71
2021/05/25 09:12:54;;;;;;;;;;;16.80;99.90;;;;;;5073157;28;20055;-72
2021/05/25 09:15:35;;;;;;;;;;;16.80;99.90;;;;;;5073193;28;20362;-71
2021/05/25 09:18:11;;;;;;;;;;;16.70;99.90;;;;;;5073188;28;19908;-71
2021/05/25 09:20:45;;;;;;;;;;;16.70;99.90;;;;;;5073288;28;19916;-71
2021/05/25 09:23:14;;;;;;;;;;;16.70;99.90;;;;;;5072851;28;19931;-72
2021/05/25 09:25:51;;;;;;;;;;;16.60;99.90;;;;;;5073166;28;19923;-72
2021/05/25 09:28:18;;;;;;;;;;;16.70;99.90;;;;;;5073290;28;19920;-71
2021/05/25 09:30:48;;;;;;;;;;;16.70;99.90;;;;;;5073062;28;20351;-72
2021/05/25 09:33:15;;;;;;;;;;;16.70;99.90;;;;;;5073161;28;20279;-72
2021/05/25 09:35:45;;;;;;;;;;;16.60;99.90;;;;;;5073062;28;19913;-73
2021/05/25 09:38:13;;;;;;;;;;;16.60;99.90;;;;;;5072520;28;19958;-72
2021/05/25 09:40:44;;;;;;;;;;;16.60;99.90;;;;;;5073163;28;20429;-72
2021/05/25 09:43:10;;;;;;;;;;;16.60;99.90;;;;;;5072934;28;19939;-69
2021/05/25 09:45:37;;;;;;;;;;;16.60;99.90;;;;;;5073060;28;19908;-72
2021/05/25 09:48:04;;;;;;;;;;;16.60;99.90;;;;;;5072898;28;19931;-71
2021/05/25 09:50:31;;;;;;;;;;;16.60;99.90;;;;;;5072713;28;19916;-72
2021/05/25 09:53:12;;;;;;;;;;;16.60;99.90;;;;;;5072561;28;19915;-71
2021/05/25 09:55:47;;;;;;;;;;;16.60;99.90;;;;;;5072716;28;20402;-70
2021/05/25 09:58:14;;;;;;;;;;;16.50;99.90;;;;;;5072906;28;20371;-72
2021/05/25 10:00:43;;;;;;;;;;;16.60;99.90;;;;;;5072964;28;20332;-73
2021/05/25 10:03:14;;;;;;;;;;;16.50;99.90;;;;;;5072783;28;20321;-70
2021/05/25 10:05:44;;;;;;;;;;;16.60;99.90;;;;;;5072891;28;20382;-71
2021/05/25 10:08:11;;;;;;;;;;;16.60;99.90;;;;;;5072770;28;20348;-68
2021/05/25 10:10:38;;;;;;;;;;;16.50;99.90;;;;;;5072561;28;20279;-70
2021/05/25 10:13:05;;;;;;;;;;;16.50;99.90;;;;;;5072487;28;20313;-69
2021/05/25 10:15:32;;;;;;;;;;;16.50;99.90;;;;;;5072682;28;20370;-69
2021/05/25 10:20:29;;;;;;;;;;;16.50;99.90;;;;;;5074045;28;19916;-70
2021/05/25 10:22:56;;;;;;;;;;;16.50;99.90;;;;;;5073634;28;20563;-69
2021/05/25 10:25:25;;;;;;;;;;;16.50;99.90;;;;;;5074185;28;19998;-70
2021/05/25 10:27:52;;;;;;;;;;;16.40;99.90;;;;;;5074694;28;19909;-69
2021/05/25 10:30:22;;;;;;;;;;;16.40;99.90;;;;;;5073235;28;19908;-69
2021/05/25 10:32:49;;;;;;;;;;;16.40;99.90;;;;;;5074832;28;19909;-68
2021/05/25 10:35:18;;;;;;;;;;;16.40;99.90;;;;;;5074544;28;19923;-70
2021/05/25 10:38:03;;;;;;;;;;;16.40;99.90;;;;;;5074099;28;20426;-72
2021/05/25 10:40:36;;;;;;;;;;;16.40;99.90;;;;;;5077892;28;20295;-70
2021/05/25 10:43:21;;;;;;;;;;;16.30;99.90;;;;;;5072817;28;19971;-69
2021/05/25 10:45:48;;;;;;;;;;;16.30;99.90;;;;;;5073500;28;20341;-70
2021/05/25 10:48:15;;;;;;;;;;;16.30;99.90;;;;;;5073480;28;19908;-69
2021/05/25 10:50:52;;;;;;;;;;;16.40;99.90;;;;;;5072560;28;19970;-69
2021/05/25 10:53:26;;;;;;;;;;;16.30;99.90;;;;;;5072356;28;19909;-69
2021/05/25 10:55:53;;;;;;;;;;;16.30;99.90;;;;;;5072367;28;19913;-69
2021/05/25 10:58:35;;;;;;;;;;;16.30;99.90;;;;;;5072270;28;19934;-71
2021/05/25 11:01:06;;;;;;;;;;;16.30;99.90;;;;;;5074448;28;19994;-69
2021/05/25 11:03:33;;;;;;;;;;;16.30;99.90;;;;;;5075907;28;19909;-69
2021/05/25 11:06:00;;;;;;;;;;;16.30;99.90;;;;;;5075877;28;20294;-69
2021/05/25 11:08:31;;;;;;;;;;;16.30;99.90;;;;;;5075807;28;19908;-69
2021/05/25 11:11:04;;;;;;;;;;;16.30;99.90;;;;;;5075670;28;19909;-69
2021/05/25 11:13:35;;;;;;;;;;;16.20;99.90;;;;;;5075683;28;19982;-69
2021/05/25 11:16:20;;;;;;;;;;;16.20;99.90;;;;;;5075192;28;19913;-70
2021/05/25 11:19:04;;;;;;;;;;;16.20;99.90;;;;;;5075697;28;19923;-71
2021/05/25 11:24:37;;;;;;;;;;;16.20;99.90;;;;;;5075507;28;19908;-69
2021/05/25 11:27:09;;;;;;;;;;;16.20;99.90;;;;;;5075175;28;20375;-72
2021/05/25 11:29:36;;;;;;;;;;;16.10;99.90;;;;;;5075435;28;19914;-70
2021/05/25 11:32:07;;;;;;;;;;;16.20;99.90;;;;;;5074934;28;19909;-69
2021/05/25 11:34:33;;;;;;;;;;;16.20;99.90;;;;;;5075326;28;19971;-70
2021/05/25 11:37:02;;;;;;;;;;;16.30;99.90;;;;;;5075129;28;19962;-70
2021/05/25 11:39:30;;;;;;;;;;;16.30;99.90;;;;;;5075102;28;19909;-70
2021/05/25 11:41:57;;;;;;;;;;;16.30;99.90;;;;;;5075333;28;19912;-72
2021/05/25 11:44:32;;;;;;;;;;;16.30;99.90;;;;;;5074763;28;19924;-70
2021/05/25 11:47:03;;;;;;;;;;;16.30;99.90;;;;;;5074304;28;19908;-70
2021/05/25 11:49:32;;;;;;;;;;;16.30;99.90;;;;;;5075186;28;19915;-69
2021/05/25 11:51:58;;;;;;;;;;;16.20;99.90;;;;;;5075176;28;19909;-68
2021/05/25 11:54:28;;;;;;;;;;;16.20;99.90;;;;;;5074673;28;20003;-70
2021/05/25 11:56:55;;;;;;;;;;;16.20;99.90;;;;;;5074847;28;19919;-68
2021/05/25 11:59:22;;;;;;;;;;;16.20;99.90;;;;;;5075202;28;19957;-69
2021/05/25 12:01:50;;;;;;;;;;;16.20;99.90;;;;;;5074491;28;20339;-70
2021/05/25 12:04:18;;;;;;;;;;;16.10;99.90;;;;;;5074999;28;19909;-72
2021/05/25 12:07:05;;;;;;;;;;;16.10;99.90;;;;;;5074613;28;19908;-71
2021/05/25 12:09:31;;;;;;;;;;;16.00;99.90;;;;;;5074456;28;19912;-69
2021/05/25 12:12:03;;;;;;;;;;;16.00;99.90;;;;;;5074114;28;19908;-69
2021/05/25 12:14:32;;;;;;;;;;;16.00;99.90;;;;;;5074286;28;19924;-70
2021/05/25 12:16:59;;;;;;;;;;;16.00;99.90;;;;;;5071760;28;19908;-71
2021/05/25 12:19:27;;;;;;;;;;;16.00;99.90;;;;;;5072496;28;19915;-70
2021/05/25 12:22:03;;;;;;;;;;;16.00;99.90;;;;;;5072417;28;19913;-69
2021/05/25 12:24:30;;;;;;;;;;;16.00;99.90;;;;;;5072316;28;20375;-69
2021/05/25 12:26:58;;;;;;;;;;;15.90;99.90;;;;;;5072221;28;19909;-71
2021/05/25 12:29:26;;;;;;;;;;;15.90;99.90;;;;;;5071968;28;19919;-69
2021/05/25 12:31:53;;;;;;;;;;;15.90;99.90;;;;;;5071875;28;19913;-69
2021/05/25 12:34:21;;;;;;;;;;;15.90;99.90;;;;;;5072187;28;19956;-70
2021/05/25 12:36:55;;;;;;;;;;;16.00;99.90;;;;;;5072015;28;19991;-69
2021/05/25 12:39:34;;;;;;;;;;;15.90;99.90;;;;;;5072013;28;19998;-69
2021/05/25 12:42:01;;;;;;;;;;;16.00;99.90;;;;;;5071693;28;19995;-69
2021/05/25 12:44:29;;;;;;;;;;;16.00;99.90;;;;;;5071364;28;19932;-71
2021/05/25 12:46:58;;;;;;;;;;;16.10;99.90;;;;;;5071752;28;20422;-71
2021/05/25 12:49:28;;;;;;;;;;;16.00;99.90;;;;;;5071882;28;19920;-70
2021/05/25 12:52:14;;;;;;;;;;;16.00;99.90;;;;;;5071873;28;19916;-69
2021/05/25 12:54:50;;;;;;;;;;;16.00;99.90;;;;;;5071121;28;20319;-68
2021/05/25 12:57:17;;;;;;;;;;;16.00;99.90;;;;;;5070488;28;20283;-68
2021/05/25 12:59:43;;;;;;;;;;;16.00;99.90;;;;;;5071226;28;19920;-69
2021/05/25 13:02:10;;;;;;;;;;;16.00;99.90;;;;;;5071614;28;20367;-69
2021/05/25 13:04:38;;;;;;;;;;;16.00;99.90;;;;;;5071633;28;19912;-69
2021/05/25 13:07:08;;;;;;;;;;;15.90;99.90;;;;;;5071046;28;19995;-69
2021/05/25 13:09:41;;;;;;;;;;;15.90;99.90;;;;;;5071427;28;19951;-69
2021/05/25 13:12:12;;;;;;;;;;;15.90;99.90;;;;;;5071191;28;19916;-69
2021/05/25 13:14:39;;;;;;;;;;;15.90;99.90;;;;;;5071635;28;19916;-68
2021/05/25 13:17:09;;;;;;;;;;;15.90;99.90;;;;;;5071157;28;20287;-69
2021/05/25 13:19:37;;;;;;;;;;;15.90;99.90;;;;;;5071313;28;20000;-72
2021/05/25 13:22:04;;;;;;;;;;;15.90;99.90;;;;;;5070898;28;19913;-69
2021/05/25 13:24:31;;;;;;;;;;;15.90;99.90;;;;;;5070332;28;20363;-69
2021/05/25 13:26:58;;;;;;;;;;;15.90;99.90;;;;;;5071020;28;19963;-70
2021/05/25 13:29:25;;;;;;;;;;;15.90;99.90;;;;;;5071206;28;19915;-69
2021/05/25 13:31:52;;;;;;;;;;;15.90;99.90;;;;;;5103604;28;20276;-71
2021/05/25 13:34:21;;;;;;;;;;;15.90;99.90;;;;;;5070707;28;20008;-70
2021/05/25 13:36:49;;;;;;;;;;;15.90;99.90;;;;;;5070893;28;19930;-70
2021/05/25 13:39:17;;;;;;;;;;;16.00;99.90;;;;;;5071033;28;19955;-70
2021/05/25 13:41:44;;;;;;;;;;;15.90;99.90;;;;;;5071067;28;19959;-70
2021/05/25 13:44:12;;;;;;;;;;;15.90;99.90;;;;;;5071006;28;20413;-69
2021/05/25 13:46:39;;;;;;;;;;;15.90;99.90;;;;;;5070508;28;20004;-71
2021/05/25 13:49:06;;;;;;;;;;;15.90;99.90;;;;;;5070918;28;20003;-70
2021/05/25 13:51:33;;;;;;;;;;;15.90;99.90;;;;;;5071293;28;20291;-70
2021/05/25 13:54:02;;;;;;;;;;;15.90;99.90;;;;;;5070859;28;19913;-72
2021/05/25 13:56:33;;;;;;;;;;;16.00;99.90;;;;;;5071080;28;19916;-70
2021/05/25 13:59:06;;;;;;;;;;;16.00;99.90;;;;;;5070829;28;19912;-72
2021/05/25 14:01:33;;;;;;;;;;;16.00;99.90;;;;;;5070907;28;19924;-71
2021/05/25 14:04:03;;;;;;;;;;;16.00;99.90;;;;;;5070978;28;20332;-70
2021/05/25 14:06:30;;;;;;;;;;;16.00;99.90;;;;;;5070980;28;19919;-71
2021/05/25 14:08:56;;;;;;;;;;;16.00;99.90;;;;;;5070515;28;19947;-71
2021/05/25 14:11:25;;;;;;;;;;;16.00;99.90;;;;;;5070811;28;20599;-70
2021/05/25 14:13:52;;;;;;;;;;;16.00;99.90;;;;;;5070281;28;20015;-69
2021/05/25 14:16:19;;;;;;;;;;;16.00;99.90;;;;;;5071020;28;19944;-69
2021/05/25 14:18:45;;;;;;;;;;;16.10;99.90;;;;;;5070571;28;19908;-69
2021/05/25 14:21:12;;;;;;;;;;;16.10;99.90;;;;;;5070669;28;19951;-70
2021/05/25 14:23:40;;;;;;;;;;;16.10;99.90;;;;;;5070572;28;19919;-70
2021/05/25 14:26:07;;;;;;;;;;;16.10;99.90;;;;;;5070339;28;19916;-71
2021/05/25 14:28:33;;;;;;;;;;;16.10;99.90;;;;;;5070518;28;19916;-69
2021/05/25 14:31:00;;;;;;;;;;;16.10;99.90;;;;;;5070541;28;19962;-72